sensor_id;sensor_type;location;lat;lon;timestamp;temperature;humidity
9371;DHT22;4725;48.384;8.984;2023-03-01T00:01:30;-4.10;99.90
9371;DHT22;4725;48.384;8.984;2023-03-01T00:03:58;-4.10;99.90
9371;DHT22;4725;48.384;8.984;2023-03-01T00:06:25;-4.20;99.90
9371;DHT22;4725;48.384;8.984;2023-03-01T00:08:52;-4.20;99.90
9371;DHT22;4725;48.384;8.984;2023-03-01T00:11:21;-4.20;99.90
9371;DHT22;4725;48.384;8.984;2023-03-01T00:13:50;-4.20;99.90
9371;DHT22;4725;48.384;8.984;2023-03-01T00:16:21;-4.20;99.90
9371;DHT22;4725;48.384;8.984;2023-03-01T00:21:16;-4.10;99.90
9371;DHT22;4725;48.384;8.984;2023-03-01T00:26:13;-4.10;99.90
9371;DHT22;4725;48.384;8.984;2023-03-01T00:28:40;-4.00;99.90
9371;DHT22;4725;48.384;8.984;2023-03-01T00:31:09;-4.00;99.90
9371;DHT22;4725;48.384;8.984;2023-03-01T00:33:37;-3.90;99.90
9371;DHT22;4725;48.384;8.984;2023-03-01T00:36:05;-3.90;99.90
9371;DHT22;4725;48.384;8.984;2023-03-01T00:38:35;-3.80;99.90
9371;DHT22;4725;48.384;8.984;2023-03-01T00:41:06;-3.80;99.90
9371;DHT22;4725;48.384;8.984;2023-03-01T00:51:04;-3.90;99.90
9371;DHT22;4725;48.384;8.984;2023-03-01T00:58:26;-4.00;99.90
9371;DHT22;4725;48.384;8.984;2023-03-01T01:03:20;-4.00;99.90
9371;DHT22;4725;48.384;8.984;2023-03-01T01:05:47;-4.10;99.90
9371;DHT22;4725;48.384;8.984;2023-03-01T01:08:15;-4.10;99.90
9371;DHT22;4725;48.384;8.984;2023-03-01T01:10:43;-4.20;99.90
9371;DHT22;4725;48.384;8.984;2023-03-01T01:13:10;-4.20;99.90
9371;DHT22;4725;48.384;8.984;2023-03-01T01:15:38;-4.20;99.90
9371;DHT22;4725;48.384;8.984;2023-03-01T01:18:06;-4.10;99.90
9371;DHT22;4725;48.384;8.984;2023-03-01T01:20:35;-4.10;99.90
9371;DHT22;4725;48.384;8.984;2023-03-01T01:23:02;-4.10;99.90
9371;DHT22;4725;48.384;8.984;2023-03-01T01:25:30;-4.20;99.90
9371;DHT22;4725;48.384;8.984;2023-03-01T01:30:24;-4.40;99.90
9371;DHT22;4725;48.384;8.984;2023-03-01T01:35:18;-4.40;99.90
9371;DHT22;4725;48.384;8.984;2023-03-01T01:37:45;-4.40;99.90
9371;DHT22;4725;48.384;8.984;2023-03-01T01:40:13;-4.50;99.90
9371;DHT22;4725;48.384;8.984;2023-03-01T01:42:41;-4.40;99.90
9371;DHT22;4725;48.384;8.984;2023-03-01T01:45:30;-4.30;99.90
9371;DHT22;4725;48.384;8.984;2023-03-01T01:48:00;-4.20;99.90
9371;DHT22;4725;48.384;8.984;2023-03-01T01:50:29;-4.00;99.90
9371;DHT22;4725;48.384;8.984;2023-03-01T01:53:06;-4.00;99.90
9371;DHT22;4725;48.384;8.984;2023-03-01T01:55:36;-3.80;99.90
9371;DHT22;4725;48.384;8.984;2023-03-01T01:58:08;-3.70;99.90
9371;DHT22;4725;48.384;8.984;2023-03-01T02:00:37;-3.50;99.90
9371;DHT22;4725;48.384;8.984;2023-03-01T02:03:07;-3.50;99.90
9371;DHT22;4725;48.384;8.984;2023-03-01T02:05:41;-3.40;99.90
9371;DHT22;4725;48.384;8.984;2023-03-01T02:08:12;-3.40;99.90
9371;DHT22;4725;48.384;8.984;2023-03-01T02:10:40;-3.30;99.90
9371;DHT22;4725;48.384;8.984;2023-03-01T02:13:09;-3.20;99.90
9371;DHT22;4725;48.384;8.984;2023-03-01T02:15:38;-3.20;99.90
9371;DHT22;4725;48.384;8.984;2023-03-01T02:18:06;-3.20;99.90
9371;DHT22;4725;48.384;8.984;2023-03-01T02:20:37;-3.10;99.90
9371;DHT22;4725;48.384;8.984;2023-03-01T02:23:07;-3.10;99.90
9371;DHT22;4725;48.384;8.984;2023-03-01T02:25:39;-3.10;99.90
9371;DHT22;4725;48.384;8.984;2023-03-01T02:28:19;-3.00;99.90
9371;DHT22;4725;48.384;8.984;2023-03-01T02:30:47;-3.00;99.90
9371;DHT22;4725;48.384;8.984;2023-03-01T02:33:30;-3.00;99.90
9371;DHT22;4725;48.384;8.984;2023-03-01T02:35:59;-3.00;99.90
9371;DHT22;4725;48.384;8.984;2023-03-01T02:38:28;-3.10;99.90
9371;DHT22;4725;48.384;8.984;2023-03-01T02:40:56;-3.00;99.90
9371;DHT22;4725;48.384;8.984;2023-03-01T02:43:29;-3.00;99.90
9371;DHT22;4725;48.384;8.984;2023-03-01T02:45:59;-3.00;99.90
9371;DHT22;4725;48.384;8.984;2023-03-01T02:48:39;-3.00;99.90
9371;DHT22;4725;48.384;8.984;2023-03-01T02:51:14;-2.90;99.90
9371;DHT22;4725;48.384;8.984;2023-03-01T02:53:54;-3.00;99.90
9371;DHT22;4725;48.384;8.984;2023-03-01T02:56:23;-2.90;99.90
9371;DHT22;4725;48.384;8.984;2023-03-01T02:58:51;-2.90;99.90
9371;DHT22;4725;48.384;8.984;2023-03-01T03:01:19;-3.00;99.90
9371;DHT22;4725;48.384;8.984;2023-03-01T03:03:46;-2.90;99.90
9371;DHT22;4725;48.384;8.984;2023-03-01T03:11:12;-2.90;99.90
9371;DHT22;4725;48.384;8.984;2023-03-01T03:13:39;-2.90;99.90
9371;DHT22;4725;48.384;8.984;2023-03-01T03:16:15;-2.80;99.90
9371;DHT22;4725;48.384;8.984;2023-03-01T03:18:42;-2.80;99.90
9371;DHT22;4725;48.384;8.984;2023-03-01T03:21:09;-2.80;99.90
9371;DHT22;4725;48.384;8.984;2023-03-01T03:23:37;-2.80;99.90
9371;DHT22;4725;48.384;8.984;2023-03-01T03:28:32;-2.80;99.90
9371;DHT22;4725;48.384;8.984;2023-03-01T03:30:59;-2.70;99.90
9371;DHT22;4725;48.384;8.984;2023-03-01T03:33:30;-2.70;99.90
9371;DHT22;4725;48.384;8.984;2023-03-01T03:35:57;-2.60;99.90
9371;DHT22;4725;48.384;8.984;2023-03-01T03:40:58;-2.60;99.90
9371;DHT22;4725;48.384;8.984;2023-03-01T03:43:28;-2.50;99.90
9371;DHT22;4725;48.384;8.984;2023-03-01T03:45:55;-2.60;99.90
9371;DHT22;4725;48.384;8.984;2023-03-01T03:48:24;-2.60;99.90
9371;DHT22;4725;48.384;8.984;2023-03-01T03:50:54;-2.60;99.90
9371;DHT22;4725;48.384;8.984;2023-03-01T03:53:23;-2.60;99.90
9371;DHT22;4725;48.384;8.984;2023-03-01T03:55:50;-2.60;99.90
9371;DHT22;4725;48.384;8.984;2023-03-01T03:58:19;-2.60;99.90
9371;DHT22;4725;48.384;8.984;2023-03-01T04:00:49;-2.60;99.90
9371;DHT22;4725;48.384;8.984;2023-03-01T04:03:17;-2.50;99.90
9371;DHT22;4725;48.384;8.984;2023-03-01T04:05:46;-2.50;99.90
9371;DHT22;4725;48.384;8.984;2023-03-01T04:08:16;-2.40;99.90
9371;DHT22;4725;48.384;8.984;2023-03-01T04:10:47;-2.50;99.90
9371;DHT22;4725;48.384;8.984;2023-03-01T04:13:16;-2.50;99.90
9371;DHT22;4725;48.384;8.984;2023-03-01T04:18:13;-2.50;99.90
9371;DHT22;4725;48.384;8.984;2023-03-01T04:20:41;-2.40;99.90
9371;DHT22;4725;48.384;8.984;2023-03-01T04:23:11;-2.50;99.90
9371;DHT22;4725;48.384;8.984;2023-03-01T04:25:42;-2.50;99.90
9371;DHT22;4725;48.384;8.984;2023-03-01T04:30:37;-2.50;99.90
9371;DHT22;4725;48.384;8.984;2023-03-01T04:33:06;-2.50;99.90
9371;DHT22;4725;48.384;8.984;2023-03-01T04:35:34;-2.40;99.90
9371;DHT22;4725;48.384;8.984;2023-03-01T04:38:01;-2.50;99.90
9371;DHT22;4725;48.384;8.984;2023-03-01T04:40:28;-2.40;99.90
9371;DHT22;4725;48.384;8.984;2023-03-01T04:45:24;-2.40;99.90
9371;DHT22;4725;48.384;8.984;2023-03-01T04:47:51;-2.30;99.90
9371;DHT22;4725;48.384;8.984;2023-03-01T04:50:19;-2.30;99.90
9371;DHT22;4725;48.384;8.984;2023-03-01T04:52:47;-2.40;99.90
9371;DHT22;4725;48.384;8.984;2023-03-01T04:55:14;-2.40;99.90
9371;DHT22;4725;48.384;8.984;2023-03-01T04:57:41;-2.50;99.90
9371;DHT22;4725;48.384;8.984;2023-03-01T05:00:12;-2.30;99.90
9371;DHT22;4725;48.384;8.984;2023-03-01T05:02:48;-2.30;99.90
9371;DHT22;4725;48.384;8.984;2023-03-01T05:05:19;-2.30;99.90
9371;DHT22;4725;48.384;8.984;2023-03-01T05:10:14;-2.30;99.90
9371;DHT22;4725;48.384;8.984;2023-03-01T05:15:10;-2.30;99.90
9371;DHT22;4725;48.384;8.984;2023-03-01T05:17:37;-2.30;99.90
9371;DHT22;4725;48.384;8.984;2023-03-01T05:20:05;-2.20;99.90
9371;DHT22;4725;48.384;8.984;2023-03-01T05:22:34;-2.30;99.90
9371;DHT22;4725;48.384;8.984;2023-03-01T05:25:01;-2.20;99.90
9371;DHT22;4725;48.384;8.984;2023-03-01T05:32:24;-2.30;99.90
9371;DHT22;4725;48.384;8.984;2023-03-01T05:37:20;-2.30;99.90
9371;DHT22;4725;48.384;8.984;2023-03-01T05:39:47;-2.20;99.90
9371;DHT22;4725;48.384;8.984;2023-03-01T05:44:43;-2.20;99.90
9371;DHT22;4725;48.384;8.984;2023-03-01T05:47:10;-2.20;99.90
9371;DHT22;4725;48.384;8.984;2023-03-01T05:49:39;-2.20;99.90
9371;DHT22;4725;48.384;8.984;2023-03-01T05:52:05;-2.10;99.90
9371;DHT22;4725;48.384;8.984;2023-03-01T05:54:32;-2.20;99.90
9371;DHT22;4725;48.384;8.984;2023-03-01T05:56:59;-2.20;99.90
9371;DHT22;4725;48.384;8.984;2023-03-01T05:59:26;-2.20;99.90
9371;DHT22;4725;48.384;8.984;2023-03-01T06:01:53;-2.20;99.90
9371;DHT22;4725;48.384;8.984;2023-03-01T06:06:49;-2.10;99.90
9371;DHT22;4725;48.384;8.984;2023-03-01T06:09:15;-2.20;99.90
9371;DHT22;4725;48.384;8.984;2023-03-01T06:11:42;-2.20;99.90
9371;DHT22;4725;48.384;8.984;2023-03-01T06:14:09;-2.20;99.90
9371;DHT22;4725;48.384;8.984;2023-03-01T06:16:40;-2.20;99.90
9371;DHT22;4725;48.384;8.984;2023-03-01T06:19:07;-2.30;99.90
9371;DHT22;4725;48.384;8.984;2023-03-01T06:21:33;-0.10;99.90
9371;DHT22;4725;48.384;8.984;2023-03-01T06:24:02;-2.20;99.90
9371;DHT22;4725;48.384;8.984;2023-03-01T06:26:29;-2.20;99.90
9371;DHT22;4725;48.384;8.984;2023-03-01T06:31:23;-2.20;99.90
9371;DHT22;4725;48.384;8.984;2023-03-01T06:33:50;-2.20;99.90
9371;DHT22;4725;48.384;8.984;2023-03-01T06:36:17;-2.20;99.90
9371;DHT22;4725;48.384;8.984;2023-03-01T06:38:46;-2.20;99.90
9371;DHT22;4725;48.384;8.984;2023-03-01T06:41:15;-2.20;99.90
9371;DHT22;4725;48.384;8.984;2023-03-01T06:43:41;-2.20;99.90
9371;DHT22;4725;48.384;8.984;2023-03-01T06:46:08;-2.20;99.90
9371;DHT22;4725;48.384;8.984;2023-03-01T06:51:03;-1.90;99.90
9371;DHT22;4725;48.384;8.984;2023-03-01T06:53:30;-1.90;99.90
9371;DHT22;4725;48.384;8.984;2023-03-01T06:55:57;-1.80;99.90
9371;DHT22;4725;48.384;8.984;2023-03-01T06:58:27;-1.80;99.90
9371;DHT22;4725;48.384;8.984;2023-03-01T07:00:53;-1.80;99.90
9371;DHT22;4725;48.384;8.984;2023-03-01T07:03:20;-1.80;99.90
9371;DHT22;4725;48.384;8.984;2023-03-01T07:05:48;-1.80;99.90
9371;DHT22;4725;48.384;8.984;2023-03-01T07:08:17;-1.80;99.90
9371;DHT22;4725;48.384;8.984;2023-03-01T07:10:44;-1.80;99.90
9371;DHT22;4725;48.384;8.984;2023-03-01T07:13:10;-1.70;99.90
9371;DHT22;4725;48.384;8.984;2023-03-01T07:15:40;-1.60;99.90
9371;DHT22;4725;48.384;8.984;2023-03-01T07:18:08;-1.60;99.90
9371;DHT22;4725;48.384;8.984;2023-03-01T07:20:35;-1.70;99.90
9371;DHT22;4725;48.384;8.984;2023-03-01T07:23:02;-1.60;99.90
9371;DHT22;4725;48.384;8.984;2023-03-01T07:25:28;-1.30;99.90
9371;DHT22;4725;48.384;8.984;2023-03-01T07:27:55;-1.30;99.90
9371;DHT22;4725;48.384;8.984;2023-03-01T07:30:22;-1.30;99.90
9371;DHT22;4725;48.384;8.984;2023-03-01T07:35:19;-1.30;99.90
9371;DHT22;4725;48.384;8.984;2023-03-01T07:37:46;-1.20;99.90
9371;DHT22;4725;48.384;8.984;2023-03-01T07:40:15;-1.20;99.90
9371;DHT22;4725;48.384;8.984;2023-03-01T07:42:42;-0.90;99.90
9371;DHT22;4725;48.384;8.984;2023-03-01T07:45:10;-0.90;99.90
9371;DHT22;4725;48.384;8.984;2023-03-01T07:47:38;-0.80;99.90
9371;DHT22;4725;48.384;8.984;2023-03-01T07:52:35;-0.60;99.90
9371;DHT22;4725;48.384;8.984;2023-03-01T07:55:02;-0.60;99.90
9371;DHT22;4725;48.384;8.984;2023-03-01T07:57:29;-0.60;99.90
9371;DHT22;4725;48.384;8.984;2023-03-01T07:59:57;-0.60;99.90
9371;DHT22;4725;48.384;8.984;2023-03-01T08:02:23;-0.50;99.90
9371;DHT22;4725;48.384;8.984;2023-03-01T08:04:50;-0.50;99.90
9371;DHT22;4725;48.384;8.984;2023-03-01T08:07:19;-0.40;99.90
9371;DHT22;4725;48.384;8.984;2023-03-01T08:09:46;-0.40;99.90
9371;DHT22;4725;48.384;8.984;2023-03-01T08:12:12;-0.30;99.90
9371;DHT22;4725;48.384;8.984;2023-03-01T08:14:41;-0.30;99.90
9371;DHT22;4725;48.384;8.984;2023-03-01T08:17:08;-0.10;99.90
9371;DHT22;4725;48.384;8.984;2023-03-01T08:19:35;-0.10;99.90
9371;DHT22;4725;48.384;8.984;2023-03-01T08:22:02;-0.10;99.90
9371;DHT22;4725;48.384;8.984;2023-03-01T08:24:30;-0.10;99.90
9371;DHT22;4725;48.384;8.984;2023-03-01T08:26:57;0.00;99.90
9371;DHT22;4725;48.384;8.984;2023-03-01T08:31:51;0.20;99.90
9371;DHT22;4725;48.384;8.984;2023-03-01T08:34:19;0.30;99.90
9371;DHT22;4725;48.384;8.984;2023-03-01T08:36:46;0.10;99.90
9371;DHT22;4725;48.384;8.984;2023-03-01T08:39:15;0.10;99.90
9371;DHT22;4725;48.384;8.984;2023-03-01T08:41:45;0.30;99.90
9371;DHT22;4725;48.384;8.984;2023-03-01T08:44:13;0.30;99.90
9371;DHT22;4725;48.384;8.984;2023-03-01T08:46:42;0.60;99.90
9371;DHT22;4725;48.384;8.984;2023-03-01T08:49:12;0.50;99.90
9371;DHT22;4725;48.384;8.984;2023-03-01T08:51:40;0.70;99.90
9371;DHT22;4725;48.384;8.984;2023-03-01T08:54:09;-0.10;99.90
9371;DHT22;4725;48.384;8.984;2023-03-01T08:56:37;0.90;99.90
9371;DHT22;4725;48.384;8.984;2023-03-01T09:04:00;1.30;99.90
9371;DHT22;4725;48.384;8.984;2023-03-01T09:06:30;1.30;99.90
9371;DHT22;4725;48.384;8.984;2023-03-01T09:08:59;1.20;99.90
9371;DHT22;4725;48.384;8.984;2023-03-01T09:11:27;1.60;99.90
9371;DHT22;4725;48.384;8.984;2023-03-01T09:13:54;1.70;99.90
9371;DHT22;4725;48.384;8.984;2023-03-01T09:16:23;1.80;99.90
9371;DHT22;4725;48.384;8.984;2023-03-01T09:18:51;1.90;99.90
9371;DHT22;4725;48.384;8.984;2023-03-01T09:21:19;2.00;99.90
9371;DHT22;4725;48.384;8.984;2023-03-01T09:23:47;2.00;99.90
9371;DHT22;4725;48.384;8.984;2023-03-01T09:26:16;2.40;99.90
9371;DHT22;4725;48.384;8.984;2023-03-01T09:28:45;2.60;99.90
9371;DHT22;4725;48.384;8.984;2023-03-01T09:31:12;2.70;99.90
9371;DHT22;4725;48.384;8.984;2023-03-01T09:33:42;2.70;99.90
9371;DHT22;4725;48.384;8.984;2023-03-01T09:36:12;3.00;99.90
9371;DHT22;4725;48.384;8.984;2023-03-01T09:38:40;2.70;99.90
9371;DHT22;4725;48.384;8.984;2023-03-01T09:41:10;2.70;99.90
9371;DHT22;4725;48.384;8.984;2023-03-01T09:43:43;2.90;99.90
9371;DHT22;4725;48.384;8.984;2023-03-01T09:46:13;2.90;99.90
9371;DHT22;4725;48.384;8.984;2023-03-01T09:48:46;3.00;99.90
9371;DHT22;4725;48.384;8.984;2023-03-01T09:51:18;3.30;99.90
9371;DHT22;4725;48.384;8.984;2023-03-01T09:53:46;3.30;99.90
9371;DHT22;4725;48.384;8.984;2023-03-01T09:56:17;3.40;99.90
9371;DHT22;4725;48.384;8.984;2023-03-01T09:58:51;3.30;99.90
9371;DHT22;4725;48.384;8.984;2023-03-01T10:01:31;5.90;99.90
9371;DHT22;4725;48.384;8.984;2023-03-01T10:04:12;3.80;99.90
9371;DHT22;4725;48.384;8.984;2023-03-01T10:06:48;4.80;99.90
9371;DHT22;4725;48.384;8.984;2023-03-01T10:09:18;4.80;99.90
9371;DHT22;4725;48.384;8.984;2023-03-01T10:11:50;5.10;99.90
9371;DHT22;4725;48.384;8.984;2023-03-01T10:14:29;5.40;99.90
9371;DHT22;4725;48.384;8.984;2023-03-01T10:16:59;5.50;99.90
9371;DHT22;4725;48.384;8.984;2023-03-01T10:19:33;5.60;99.90
9371;DHT22;4725;48.384;8.984;2023-03-01T10:22:04;6.10;99.90
9371;DHT22;4725;48.384;8.984;2023-03-01T10:24:34;6.00;99.90
9371;DHT22;4725;48.384;8.984;2023-03-01T10:27:06;6.10;99.90
9371;DHT22;4725;48.384;8.984;2023-03-01T10:29:39;6.20;99.90
9371;DHT22;4725;48.384;8.984;2023-03-01T10:32:09;5.80;99.90
9371;DHT22;4725;48.384;8.984;2023-03-01T10:34:38;6.40;99.90
9371;DHT22;4725;48.384;8.984;2023-03-01T10:37:11;6.10;99.90
9371;DHT22;4725;48.384;8.984;2023-03-01T10:39:55;6.20;99.90
9371;DHT22;4725;48.384;8.984;2023-03-01T10:42:26;6.50;99.90
9371;DHT22;4725;48.384;8.984;2023-03-01T10:44:54;6.60;99.90
9371;DHT22;4725;48.384;8.984;2023-03-01T10:47:23;6.50;99.90
9371;DHT22;4725;48.384;8.984;2023-03-01T10:49:58;6.70;99.90
9371;DHT22;4725;48.384;8.984;2023-03-01T10:52:31;7.00;99.90
9371;DHT22;4725;48.384;8.984;2023-03-01T10:55:01;6.80;99.90
9371;DHT22;4725;48.384;8.984;2023-03-01T10:57:31;7.00;99.90
9371;DHT22;4725;48.384;8.984;2023-03-01T11:02:48;7.30;99.90
9371;DHT22;4725;48.384;8.984;2023-03-01T11:05:24;7.50;99.90
9371;DHT22;4725;48.384;8.984;2023-03-01T11:07:53;8.20;99.70
9371;DHT22;4725;48.384;8.984;2023-03-01T11:10:22;7.50;99.90
9371;DHT22;4725;48.384;8.984;2023-03-01T11:12:51;7.30;99.90
9371;DHT22;4725;48.384;8.984;2023-03-01T11:15:25;7.60;99.90
9371;DHT22;4725;48.384;8.984;2023-03-01T11:17:53;8.10;99.90
9371;DHT22;4725;48.384;8.984;2023-03-01T11:20:29;8.30;99.40
9371;DHT22;4725;48.384;8.984;2023-03-01T11:23:00;8.20;99.70
9371;DHT22;4725;48.384;8.984;2023-03-01T11:25:31;8.70;99.80
9371;DHT22;4725;48.384;8.984;2023-03-01T11:28:02;9.00;99.40
9371;DHT22;4725;48.384;8.984;2023-03-01T11:30:34;9.70;98.50
9371;DHT22;4725;48.384;8.984;2023-03-01T11:33:17;9.60;97.10
9371;DHT22;4725;48.384;8.984;2023-03-01T11:35:53;9.30;98.60
9371;DHT22;4725;48.384;8.984;2023-03-01T11:38:23;9.10;98.00
9371;DHT22;4725;48.384;8.984;2023-03-01T11:40:55;9.20;98.10
9371;DHT22;4725;48.384;8.984;2023-03-01T11:43:33;9.10;98.00
9371;DHT22;4725;48.384;8.984;2023-03-01T11:49:16;10.20;97.00
9371;DHT22;4725;48.384;8.984;2023-03-01T11:51:55;11.20;95.10
9371;DHT22;4725;48.384;8.984;2023-03-01T11:54:33;11.00;95.00
9371;DHT22;4725;48.384;8.984;2023-03-01T11:57:08;11.10;95.00
9371;DHT22;4725;48.384;8.984;2023-03-01T12:00:02;10.80;95.40
9371;DHT22;4725;48.384;8.984;2023-03-01T12:03:15;10.60;95.20
9371;DHT22;4725;48.384;8.984;2023-03-01T12:08:41;10.60;94.50
9371;DHT22;4725;48.384;8.984;2023-03-01T12:11:22;10.50;94.60
9371;DHT22;4725;48.384;8.984;2023-03-01T12:14:04;10.60;95.00
9371;DHT22;4725;48.384;8.984;2023-03-01T12:16:46;10.60;95.60
9371;DHT22;4725;48.384;8.984;2023-03-01T12:19:37;11.90;93.20
9371;DHT22;4725;48.384;8.984;2023-03-01T12:22:17;12.20;92.60
9371;DHT22;4725;48.384;8.984;2023-03-01T12:25:05;12.40;92.80
9371;DHT22;4725;48.384;8.984;2023-03-01T12:27:55;12.70;91.60
9371;DHT22;4725;48.384;8.984;2023-03-01T12:30:37;12.30;92.10
9371;DHT22;4725;48.384;8.984;2023-03-01T12:33:20;12.10;91.80
9371;DHT22;4725;48.384;8.984;2023-03-01T12:36:13;11.80;93.00
9371;DHT22;4725;48.384;8.984;2023-03-01T12:38:49;12.40;92.40
9371;DHT22;4725;48.384;8.984;2023-03-01T12:41:47;13.00;91.40
9371;DHT22;4725;48.384;8.984;2023-03-01T12:44:28;13.00;91.50
9371;DHT22;4725;48.384;8.984;2023-03-01T12:47:07;13.20;92.00
9371;DHT22;4725;48.384;8.984;2023-03-01T12:49:40;13.70;90.80
9371;DHT22;4725;48.384;8.984;2023-03-01T12:52:11;13.40;90.70
9371;DHT22;4725;48.384;8.984;2023-03-01T12:54:39;12.90;91.80
9371;DHT22;4725;48.384;8.984;2023-03-01T12:57:13;12.90;91.60
9371;DHT22;4725;48.384;8.984;2023-03-01T12:59:51;13.20;90.70
9371;DHT22;4725;48.384;8.984;2023-03-01T13:02:31;13.50;90.10
9371;DHT22;4725;48.384;8.984;2023-03-01T13:05:15;13.40;90.70
9371;DHT22;4725;48.384;8.984;2023-03-01T13:07:55;13.80;91.10
9371;DHT22;4725;48.384;8.984;2023-03-01T13:10:31;14.10;89.70
9371;DHT22;4725;48.384;8.984;2023-03-01T13:13:13;14.10;90.20
9371;DHT22;4725;48.384;8.984;2023-03-01T13:15:40;14.30;90.50
9371;DHT22;4725;48.384;8.984;2023-03-01T13:18:30;14.60;90.00
9371;DHT22;4725;48.384;8.984;2023-03-01T13:21:00;14.70;88.80
9371;DHT22;4725;48.384;8.984;2023-03-01T13:23:30;13.90;87.70
9371;DHT22;4725;48.384;8.984;2023-03-01T13:26:12;13.90;89.60
9371;DHT22;4725;48.384;8.984;2023-03-01T13:28:52;13.80;88.50
9371;DHT22;4725;48.384;8.984;2023-03-01T13:34:56;13.60;89.40
9371;DHT22;4725;48.384;8.984;2023-03-01T13:37:34;14.40;88.60
9371;DHT22;4725;48.384;8.984;2023-03-01T13:43:27;14.90;87.20
9371;DHT22;4725;48.384;8.984;2023-03-01T13:45:57;15.10;86.80
9371;DHT22;4725;48.384;8.984;2023-03-01T13:48:28;15.00;88.80
9371;DHT22;4725;48.384;8.984;2023-03-01T13:50:58;14.40;88.60
9371;DHT22;4725;48.384;8.984;2023-03-01T13:53:29;14.90;87.00
9371;DHT22;4725;48.384;8.984;2023-03-01T13:56:00;15.00;85.10
9371;DHT22;4725;48.384;8.984;2023-03-01T13:58:29;14.80;85.30
9371;DHT22;4725;48.384;8.984;2023-03-01T14:01:00;14.10;86.90
9371;DHT22;4725;48.384;8.984;2023-03-01T14:03:28;13.80;87.30
9371;DHT22;4725;48.384;8.984;2023-03-01T14:06:02;13.80;88.70
9371;DHT22;4725;48.384;8.984;2023-03-01T14:08:32;14.00;87.80
9371;DHT22;4725;48.384;8.984;2023-03-01T14:14:22;14.80;86.10
9371;DHT22;4725;48.384;8.984;2023-03-01T14:17:00;15.00;86.20
9371;DHT22;4725;48.384;8.984;2023-03-01T14:19:31;14.70;86.80
9371;DHT22;4725;48.384;8.984;2023-03-01T14:22:00;15.10;86.00
9371;DHT22;4725;48.384;8.984;2023-03-01T14:24:29;15.40;86.30
9371;DHT22;4725;48.384;8.984;2023-03-01T14:27:01;15.10;85.50
9371;DHT22;4725;48.384;8.984;2023-03-01T14:29:35;14.90;86.10
9371;DHT22;4725;48.384;8.984;2023-03-01T14:32:16;14.70;87.00
9371;DHT22;4725;48.384;8.984;2023-03-01T14:34:46;14.60;87.50
9371;DHT22;4725;48.384;8.984;2023-03-01T14:37:22;15.20;84.60
9371;DHT22;4725;48.384;8.984;2023-03-01T14:39:51;14.70;85.30
9371;DHT22;4725;48.384;8.984;2023-03-01T14:42:20;14.60;86.90
9371;DHT22;4725;48.384;8.984;2023-03-01T14:44:49;14.40;86.70
9371;DHT22;4725;48.384;8.984;2023-03-01T14:47:26;14.60;85.70
9371;DHT22;4725;48.384;8.984;2023-03-01T14:49:57;14.50;85.10
9371;DHT22;4725;48.384;8.984;2023-03-01T14:52:31;14.10;86.30
9371;DHT22;4725;48.384;8.984;2023-03-01T14:55:02;14.10;86.90
9371;DHT22;4725;48.384;8.984;2023-03-01T14:57:29;14.10;87.60
9371;DHT22;4725;48.384;8.984;2023-03-01T14:59:59;14.40;87.90
9371;DHT22;4725;48.384;8.984;2023-03-01T15:02:32;15.00;85.30
9371;DHT22;4725;48.384;8.984;2023-03-01T15:05:02;14.90;85.80
9371;DHT22;4725;48.384;8.984;2023-03-01T15:07:32;15.00;86.00
9371;DHT22;4725;48.384;8.984;2023-03-01T15:10:04;14.90;85.80
9371;DHT22;4725;48.384;8.984;2023-03-01T15:12:37;14.00;85.90
9371;DHT22;4725;48.384;8.984;2023-03-01T15:15:33;13.50;87.50
9371;DHT22;4725;48.384;8.984;2023-03-01T15:18:04;13.30;88.20
9371;DHT22;4725;48.384;8.984;2023-03-01T15:20:33;13.80;86.30
9371;DHT22;4725;48.384;8.984;2023-03-01T15:23:03;13.80;86.40
9371;DHT22;4725;48.384;8.984;2023-03-01T15:25:32;13.90;87.50
9371;DHT22;4725;48.384;8.984;2023-03-01T15:28:01;13.70;87.20
9371;DHT22;4725;48.384;8.984;2023-03-01T15:30:31;13.30;87.90
9371;DHT22;4725;48.384;8.984;2023-03-01T15:33:28;13.00;88.80
9371;DHT22;4725;48.384;8.984;2023-03-01T15:35:59;12.70;90.20
9371;DHT22;4725;48.384;8.984;2023-03-01T15:38:30;12.70;89.00
9371;DHT22;4725;48.384;8.984;2023-03-01T15:41:00;12.50;90.20
9371;DHT22;4725;48.384;8.984;2023-03-01T15:43:42;12.60;89.70
9371;DHT22;4725;48.384;8.984;2023-03-01T15:46:21;12.10;90.50
9371;DHT22;4725;48.384;8.984;2023-03-01T15:48:54;11.30;90.60
9371;DHT22;4725;48.384;8.984;2023-03-01T15:51:31;9.70;92.90
9371;DHT22;4725;48.384;8.984;2023-03-01T15:54:02;9.00;93.80
9371;DHT22;4725;48.384;8.984;2023-03-01T15:56:29;8.90;94.00
9371;DHT22;4725;48.384;8.984;2023-03-01T15:59:01;8.50;94.70
9371;DHT22;4725;48.384;8.984;2023-03-01T16:01:29;7.90;95.90
9371;DHT22;4725;48.384;8.984;2023-03-01T16:04:01;7.80;96.00
9371;DHT22;4725;48.384;8.984;2023-03-01T16:06:28;7.60;96.10
9371;DHT22;4725;48.384;8.984;2023-03-01T16:08:56;7.20;96.30
9371;DHT22;4725;48.384;8.984;2023-03-01T16:11:23;6.80;97.20
9371;DHT22;4725;48.384;8.984;2023-03-01T16:13:50;6.80;97.40
9371;DHT22;4725;48.384;8.984;2023-03-01T16:16:17;6.50;97.90
9371;DHT22;4725;48.384;8.984;2023-03-01T16:18:45;6.40;98.30
9371;DHT22;4725;48.384;8.984;2023-03-01T16:21:20;6.20;98.40
9371;DHT22;4725;48.384;8.984;2023-03-01T16:26:16;5.90;99.10
9371;DHT22;4725;48.384;8.984;2023-03-01T16:28:44;5.80;99.60
9371;DHT22;4725;48.384;8.984;2023-03-01T16:31:16;5.60;99.70
9371;DHT22;4725;48.384;8.984;2023-03-01T16:36:16;5.40;99.90
9371;DHT22;4725;48.384;8.984;2023-03-01T16:38:44;5.40;99.90
9371;DHT22;4725;48.384;8.984;2023-03-01T16:41:13;5.40;99.90
9371;DHT22;4725;48.384;8.984;2023-03-01T16:43:41;5.20;99.90
9371;DHT22;4725;48.384;8.984;2023-03-01T16:46:13;5.10;99.90
9371;DHT22;4725;48.384;8.984;2023-03-01T16:48:41;5.00;99.90
9371;DHT22;4725;48.384;8.984;2023-03-01T16:51:09;4.80;99.90
9371;DHT22;4725;48.384;8.984;2023-03-01T16:53:37;4.80;99.90
9371;DHT22;4725;48.384;8.984;2023-03-01T16:56:09;4.70;99.90
9371;DHT22;4725;48.384;8.984;2023-03-01T16:58:37;4.60;99.90
9371;DHT22;4725;48.384;8.984;2023-03-01T17:01:07;4.50;99.90
9371;DHT22;4725;48.384;8.984;2023-03-01T17:03:37;4.30;99.90
9371;DHT22;4725;48.384;8.984;2023-03-01T17:06:07;4.20;99.90
9371;DHT22;4725;48.384;8.984;2023-03-01T17:08:35;4.20;99.90
9371;DHT22;4725;48.384;8.984;2023-03-01T17:11:04;4.10;99.90
9371;DHT22;4725;48.384;8.984;2023-03-01T17:13:34;4.00;99.90
9371;DHT22;4725;48.384;8.984;2023-03-01T17:16:04;3.90;99.90
9371;DHT22;4725;48.384;8.984;2023-03-01T17:18:31;3.80;99.90
9371;DHT22;4725;48.384;8.984;2023-03-01T17:20:58;3.70;99.90
9371;DHT22;4725;48.384;8.984;2023-03-01T17:23:26;3.60;99.90
9371;DHT22;4725;48.384;8.984;2023-03-01T17:25:53;3.60;99.90
9371;DHT22;4725;48.384;8.984;2023-03-01T17:28:21;3.50;99.90
9371;DHT22;4725;48.384;8.984;2023-03-01T17:33:18;3.50;99.90
9371;DHT22;4725;48.384;8.984;2023-03-01T17:35:46;3.40;99.90
9371;DHT22;4725;48.384;8.984;2023-03-01T17:38:16;3.40;99.90
9371;DHT22;4725;48.384;8.984;2023-03-01T17:40:44;3.40;99.90
9371;DHT22;4725;48.384;8.984;2023-03-01T17:43:12;3.40;99.90
9371;DHT22;4725;48.384;8.984;2023-03-01T17:45:39;3.40;99.90
9371;DHT22;4725;48.384;8.984;2023-03-01T17:48:10;3.50;99.90
9371;DHT22;4725;48.384;8.984;2023-03-01T17:50:37;3.40;99.90
9371;DHT22;4725;48.384;8.984;2023-03-01T17:53:05;3.50;99.90
9371;DHT22;4725;48.384;8.984;2023-03-01T17:55:35;3.50;99.90
9371;DHT22;4725;48.384;8.984;2023-03-01T17:58:04;3.50;99.90
9371;DHT22;4725;48.384;8.984;2023-03-01T18:00:32;3.50;99.90
9371;DHT22;4725;48.384;8.984;2023-03-01T18:03:00;3.50;99.90
9371;DHT22;4725;48.384;8.984;2023-03-01T18:05:32;3.50;99.90
9371;DHT22;4725;48.384;8.984;2023-03-01T18:08:00;3.50;99.90
9371;DHT22;4725;48.384;8.984;2023-03-01T18:10:27;3.50;99.90
9371;DHT22;4725;48.384;8.984;2023-03-01T18:12:54;3.60;99.90